Time;durP1;ratioP1;P1;durP2;ratioP2;P2;SDS_P1;SDS_P2;PMS_P1;PMS_P2;Temp;Humidity;BMP_temperature;BMP_pressure;BME280_temperature;BME280_humidity;BME280_pressure;Samples;Min_cycle;Max_cycle;Signal;HPM_P1;HPM_P2
2021/07/29 00:01:38;;;;;;;2.08;0.55;;;15.60;99.90;;;;;;4934996;29;20083;-82
2021/07/29 00:04:03;;;;;;;1.60;0.40;;;15.70;99.90;;;;;;4950501;29;20400;-82
2021/07/29 00:06:29;;;;;;;2.58;0.40;;;15.70;99.90;;;;;;4950669;29;20244;-82
2021/07/29 00:08:55;;;;;;;3.20;0.40;;;15.70;99.90;;;;;;4950437;29;20111;-82
2021/07/29 00:11:21;;;;;;;2.78;0.45;;;15.80;99.90;;;;;;4950564;29;20059;-82
2021/07/29 00:13:47;;;;;;;3.50;0.40;;;15.70;99.90;;;;;;4950186;29;20048;-83
2021/07/29 00:16:12;;;;;;;4.03;0.47;;;15.70;99.90;;;;;;4949999;29;20107;-82
2021/07/29 00:21:22;;;;;;;2.72;0.40;;;15.70;99.90;;;;;;4950345;29;20032;-82
2021/07/29 00:23:51;;;;;;;2.05;0.30;;;15.70;99.90;;;;;;4934228;29;20062;-82
2021/07/29 00:26:17;;;;;;;2.08;0.40;;;15.70;99.90;;;;;;4934354;29;20035;-81
2021/07/29 00:28:43;;;;;;;1.95;0.30;;;15.70;99.90;;;;;;4934074;29;20028;-81
2021/07/29 00:31:08;;;;;;;1.58;0.40;;;15.70;99.90;;;;;;4934408;29;20056;-82
2021/07/29 00:33:34;;;;;;;2.67;0.40;;;15.70;99.90;;;;;;4949874;29;20236;-82
2021/07/29 00:36:00;;;;;;;1.70;0.40;;;15.70;99.90;;;;;;4934033;29;20042;-81
2021/07/29 00:38:26;;;;;;;2.03;0.30;;;15.80;99.90;;;;;;4934094;29;20039;-82
2021/07/29 00:40:51;;;;;;;1.20;0.30;;;15.70;99.90;;;;;;4918303;29;20039;-81
2021/07/29 00:43:17;;;;;;;3.63;0.40;;;15.80;99.90;;;;;;4933846;29;20103;-82
2021/07/29 00:45:44;;;;;;;3.25;0.50;;;15.70;99.90;;;;;;4951176;29;20020;-81
2021/07/29 00:48:13;;;;;;;3.42;0.50;;;15.70;99.90;;;;;;4950713;29;20067;-81
2021/07/29 00:50:39;;;;;;;5.18;0.57;;;15.60;99.90;;;;;;4949854;29;20063;-82
2021/07/29 00:53:06;;;;;;;1.92;0.40;;;15.50;99.90;;;;;;4933720;29;20051;-81
2021/07/29 00:55:32;;;;;;;2.33;0.40;;;15.50;99.90;;;;;;4933845;29;20039;-81
2021/07/29 00:57:57;;;;;;;4.35;0.40;;;15.50;99.90;;;;;;4917846;29;20039;-82
2021/07/29 01:00:23;;;;;;;1.42;0.40;;;15.40;99.90;;;;;;4933777;29;20044;-81
2021/07/29 01:02:49;;;;;;;3.83;0.38;;;15.50;99.90;;;;;;4949941;29;20027;-81
2021/07/29 01:05:15;;;;;;;5.75;0.35;;;15.40;99.90;;;;;;4933669;29;20468;-81
2021/07/29 01:07:40;;;;;;;1.67;0.40;;;15.40;99.90;;;;;;4917829;29;20047;-81
2021/07/29 01:10:06;;;;;;;4.00;0.40;;;15.40;99.90;;;;;;4917836;29;20031;-81
2021/07/29 01:12:33;;;;;;;3.80;0.30;;;15.40;99.90;;;;;;4917788;29;20027;-81
2021/07/29 01:14:59;;;;;;;6.40;0.40;;;15.40;99.90;;;;;;4917426;29;20043;-82
2021/07/29 01:17:24;;;;;;;2.75;0.38;;;15.30;99.90;;;;;;4951771;29;20047;-81
2021/07/29 01:19:50;;;;;;;3.88;0.55;;;15.30;99.90;;;;;;4936446;29;20129;-81
2021/07/29 01:22:16;;;;;;;2.17;0.50;;;15.20;99.90;;;;;;4952470;29;20031;-81
2021/07/29 01:24:41;;;;;;;1.67;0.40;;;15.20;99.90;;;;;;4952348;29;20472;-82
2021/07/29 01:27:07;;;;;;;3.58;0.50;;;15.20;99.90;;;;;;4952339;29;20027;-82
2021/07/29 01:29:33;;;;;;;2.15;0.40;;;15.20;99.90;;;;;;4952152;29;20463;-81
2021/07/29 01:31:58;;;;;;;1.50;0.30;;;15.20;99.90;;;;;;4952351;29;20027;-82
2021/07/29 01:34:25;;;;;;;3.88;0.40;;;15.20;99.90;;;;;;4951969;29;20053;-82
2021/07/29 01:36:51;;;;;;;2.50;0.40;;;15.20;99.90;;;;;;4958553;29;20028;-81
2021/07/29 01:39:16;;;;;;;5.90;0.50;;;15.20;99.90;;;;;;4917357;29;20074;-81
2021/07/29 01:41:42;;;;;;;1.55;0.40;;;15.20;99.90;;;;;;4933079;29;20043;-83
2021/07/29 01:44:07;;;;;;;2.38;0.45;;;15.30;99.90;;;;;;4932777;29;20035;-82
2021/07/29 01:46:33;;;;;;;3.10;0.40;;;15.30;99.90;;;;;;4932891;29;20118;-82
2021/07/29 01:48:58;;;;;;;2.58;0.30;;;15.30;99.90;;;;;;4917151;29;20082;-82
2021/07/29 01:51:24;;;;;;;1.30;0.30;;;15.30;99.90;;;;;;4917249;29;20031;-81
2021/07/29 01:53:50;;;;;;;2.00;0.30;;;15.30;99.90;;;;;;4917055;29;20055;-81
2021/07/29 01:56:16;;;;;;;2.20;0.40;;;15.40;99.90;;;;;;4933084;29;20043;-81
2021/07/29 01:58:43;;;;;;;3.63;0.40;;;15.40;99.90;;;;;;4917328;29;20048;-81
2021/07/29 02:01:08;;;;;;;3.83;0.60;;;15.40;99.90;;;;;;4916922;29;20062;-81
2021/07/29 02:03:36;;;;;;;2.35;0.40;;;15.40;99.90;;;;;;4932721;29;20031;-81
2021/07/29 02:06:02;;;;;;;3.33;0.40;;;15.40;99.90;;;;;;4916879;29;20028;-82
2021/07/29 02:08:28;;;;;;;2.30;0.50;;;15.40;99.90;;;;;;4932634;29;20038;-80
2021/07/29 02:10:54;;;;;;;1.92;0.40;;;15.30;99.90;;;;;;4932538;29;20091;-82
2021/07/29 02:13:19;;;;;;;3.60;0.30;;;15.30;99.90;;;;;;4949473;29;20043;-81
2021/07/29 02:15:45;;;;;;;2.55;0.40;;;15.30;99.90;;;;;;4921839;29;20051;-82
2021/07/29 02:18:10;;;;;;;5.00;0.40;;;15.40;99.90;;;;;;4951356;29;20479;-82
2021/07/29 02:20:36;;;;;;;2.58;0.40;;;15.30;99.90;;;;;;4967488;29;20046;-82
2021/07/29 02:23:01;;;;;;;2.92;0.40;;;15.30;99.90;;;;;;4951440;29;20133;-81
2021/07/29 02:25:27;;;;;;;1.70;0.30;;;15.30;99.90;;;;;;4951318;29;20480;-82
2021/07/29 02:27:53;;;;;;;2.97;0.32;;;15.20;99.90;;;;;;4951444;29;20042;-82
2021/07/29 02:30:18;;;;;;;3.22;0.30;;;15.10;99.90;;;;;;4967120;29;20147;-81
2021/07/29 02:32:44;;;;;;;1.92;0.40;;;15.10;99.90;;;;;;4968341;29;20129;-81
2021/07/29 02:35:10;;;;;;;1.77;0.32;;;15.10;99.90;;;;;;4951094;29;20061;-81
2021/07/29 02:37:36;;;;;;;4.80;0.40;;;15.10;99.90;;;;;;4935617;29;20038;-83
2021/07/29 02:40:01;;;;;;;2.38;0.30;;;15.00;99.90;;;;;;4916348;29;20035;-81
2021/07/29 02:42:27;;;;;;;3.88;0.38;;;15.00;99.90;;;;;;4932069;29;20059;-81
2021/07/29 02:44:52;;;;;;;5.28;0.40;;;14.90;99.90;;;;;;4947900;29;20032;-81
2021/07/29 02:47:18;;;;;;;1.65;0.40;;;15.00;99.90;;;;;;4915844;29;20199;-81
2021/07/29 02:49:44;;;;;;;4.88;0.38;;;14.90;99.90;;;;;;4915753;29;20038;-81
2021/07/29 02:52:10;;;;;;;3.50;0.43;;;14.90;99.90;;;;;;4931594;29;20039;-82
2021/07/29 02:54:35;;;;;;;2.05;0.35;;;14.90;99.90;;;;;;4931678;29;20378;-81
2021/07/29 02:57:01;;;;;;;0.90;0.30;;;14.90;99.90;;;;;;4931642;29;20035;-81
2021/07/29 02:59:27;;;;;;;3.42;0.47;;;14.80;99.90;;;;;;4948702;29;20027;-82
2021/07/29 03:01:52;;;;;;;2.92;0.50;;;14.90;99.90;;;;;;4915708;29;20095;-81
2021/07/29 03:04:20;;;;;;;3.00;0.60;;;14.80;99.90;;;;;;4947327;29;20492;-82
2021/07/29 03:06:46;;;;;;;1.55;0.40;;;14.80;99.90;;;;;;4931491;29;20104;-82
2021/07/29 03:09:13;;;;;;;2.58;0.40;;;14.80;99.90;;;;;;4931478;29;20039;-82
2021/07/29 03:11:38;;;;;;;3.45;0.40;;;14.80;99.90;;;;;;4915623;29;20031;-81
2021/07/29 03:14:04;;;;;;;2.83;0.30;;;14.80;99.90;;;;;;4931083;29;20060;-80
2021/07/29 03:16:30;;;;;;;3.67;0.40;;;14.80;99.90;;;;;;4959395;29;20075;-81
2021/07/29 03:18:55;;;;;;;10.15;0.85;;;14.80;99.90;;;;;;4950501;29;20046;-81
2021/07/29 03:21:21;;;;;;;2.95;0.45;;;14.70;99.90;;;;;;4950417;29;20028;-81
2021/07/29 03:23:46;;;;;;;4.07;0.50;;;14.70;99.90;;;;;;4950123;29;20028;-81
2021/07/29 03:26:12;;;;;;;6.45;0.40;;;14.70;99.90;;;;;;4965815;28;20035;-81
2021/07/29 03:28:38;;;;;;;4.72;0.32;;;14.70;99.90;;;;;;4950221;29;20052;-81
2021/07/29 03:31:03;;;;;;;3.25;0.50;;;14.60;99.90;;;;;;4966175;29;20091;-81
2021/07/29 03:33:29;;;;;;;4.15;0.60;;;14.60;99.90;;;;;;4950004;29;20050;-81
2021/07/29 03:35:55;;;;;;;6.72;0.77;;;14.70;99.90;;;;;;4947802;29;20031;-81
2021/07/29 03:38:20;;;;;;;2.90;0.50;;;14.70;99.90;;;;;;4946984;29;20039;-81
2021/07/29 03:40:46;;;;;;;1.92;0.35;;;14.70;99.90;;;;;;4947024;29;20032;-81
2021/07/29 03:43:13;;;;;;;3.83;0.40;;;14.80;99.90;;;;;;4948063;29;20028;-81
2021/07/29 03:45:44;;;;;;;3.17;0.40;;;14.80;99.90;;;;;;4946868;29;20043;-81
2021/07/29 03:48:11;;;;;;;2.83;0.40;;;14.90;99.90;;;;;;4937107;23;20504;-81
2021/07/29 03:50:40;;;;;;;2.45;0.50;;;14.90;99.90;;;;;;4877928;29;20060;-81
2021/07/29 03:53:06;;;;;;;5.43;0.60;;;14.90;99.90;;;;;;4893427;29;20108;-81
2021/07/29 03:55:32;;;;;;;3.53;0.50;;;15.00;99.90;;;;;;4909451;29;20052;-81
2021/07/29 03:58:01;;;;;;;5.55;0.50;;;15.00;99.90;;;;;;4893387;29;20100;-81
2021/07/29 04:00:29;;;;;;;6.25;0.50;;;15.10;99.90;;;;;;4893318;29;20084;-82
2021/07/29 04:02:55;;;;;;;6.97;0.95;;;15.10;99.90;;;;;;4892887;29;20033;-81
2021/07/29 04:05:21;;;;;;;5.63;0.40;;;15.10;99.90;;;;;;4893202;29;20057;-81
2021/07/29 04:07:46;;;;;;;4.95;0.40;;;15.10;99.90;;;;;;4910047;29;20032;-81
2021/07/29 04:10:12;;;;;;;3.88;0.40;;;15.10;99.90;;;;;;4877768;29;20040;-81
2021/07/29 04:12:38;;;;;;;3.95;0.50;;;15.10;99.90;;;;;;4907815;29;20033;-81
2021/07/29 04:15:04;;;;;;;4.53;0.52;;;15.10;99.90;;;;;;4908178;29;20044;-80
2021/07/29 04:17:30;;;;;;;5.28;0.60;;;15.10;99.90;;;;;;4893316;29;20028;-80
2021/07/29 04:19:58;;;;;;;3.65;0.40;;;15.10;99.90;;;;;;4892472;29;20065;-80
2021/07/29 04:22:24;;;;;;;3.33;0.40;;;15.20;99.90;;;;;;4892589;29;20040;-80
2021/07/29 04:24:56;;;;;;;6.93;0.40;;;15.20;99.90;;;;;;4892640;29;20036;-83
2021/07/29 04:27:22;;;;;;;4.72;0.40;;;15.10;99.90;;;;;;4890577;29;20036;-84
2021/07/29 04:29:48;;;;;;;5.78;0.70;;;15.10;99.90;;;;;;4892958;29;20201;-79
2021/07/29 04:32:17;;;;;;;1.80;0.30;;;15.10;99.90;;;;;;4892501;29;20039;-82
2021/07/29 04:34:42;;;;;;;2.30;0.57;;;15.10;99.90;;;;;;4892373;29;20120;-80
2021/07/29 04:37:11;;;;;;;3.95;0.68;;;15.10;99.90;;;;;;4893072;29;20512;-79
2021/07/29 04:39:41;;;;;;;2.78;0.40;;;15.00;99.90;;;;;;4896024;29;20188;-79
2021/07/29 04:42:07;;;;;;;3.03;0.50;;;15.00;99.90;;;;;;4942598;23;20524;-80
2021/07/29 04:44:32;;;;;;;4.13;0.40;;;15.10;99.90;;;;;;4898790;29;20137;-79
2021/07/29 04:46:58;;;;;;;7.53;0.52;;;15.00;99.90;;;;;;4929531;29;20032;-81
2021/07/29 04:49:23;;;;;;;4.65;0.63;;;15.00;99.90;;;;;;4898304;29;20373;-79
2021/07/29 04:51:49;;;;;;;3.58;0.52;;;15.00;99.90;;;;;;4898598;29;20029;-79
2021/07/29 04:54:15;;;;;;;2.58;0.40;;;14.90;99.90;;;;;;4914396;29;20092;-80
2021/07/29 04:56:40;;;;;;;3.58;0.40;;;15.00;99.90;;;;;;4898586;29;20032;-80
2021/07/29 04:59:06;;;;;;;6.78;0.63;;;15.20;99.90;;;;;;4914355;29;20175;-79
2021/07/29 05:01:36;;;;;;;4.78;0.57;;;15.30;99.90;;;;;;4898982;29;20536;-82
2021/07/29 05:04:05;;;;;;;3.58;0.35;;;15.40;99.90;;;;;;4913416;29;20032;-80
2021/07/29 05:06:31;;;;;;;4.88;0.55;;;15.40;99.90;;;;;;4929835;29;20418;-81
2021/07/29 05:08:56;;;;;;;7.30;0.55;;;15.50;99.90;;;;;;4914201;29;20040;-81
2021/07/29 05:11:22;;;;;;;8.35;1.08;;;15.50;99.90;;;;;;4931241;29;20028;-80
2021/07/29 05:13:51;;;;;;;8.85;0.73;;;15.50;99.90;;;;;;4880161;29;20056;-80
2021/07/29 05:16:16;;;;;;;6.00;0.60;;;15.60;99.90;;;;;;4925205;29;20043;-80
2021/07/29 05:18:42;;;;;;;7.68;1.08;;;15.60;99.90;;;;;;4948341;29;20036;-80
2021/07/29 05:21:08;;;;;;;4.28;0.60;;;15.70;99.90;;;;;;4947313;29;20036;-80
2021/07/29 05:23:34;;;;;;;8.63;0.85;;;15.70;99.90;;;;;;4948619;29;20036;-81
2021/07/29 05:26:00;;;;;;;5.40;0.88;;;15.60;99.90;;;;;;4932655;29;20051;-79
2021/07/29 05:28:26;;;;;;;6.28;0.60;;;15.70;99.90;;;;;;4948257;29;20118;-80
2021/07/29 05:30:51;;;;;;;6.13;0.70;;;15.80;99.90;;;;;;4947712;29;20059;-80
2021/07/29 05:33:17;;;;;;;6.75;0.43;;;15.80;99.90;;;;;;4947090;29;20036;-80
2021/07/29 05:35:43;;;;;;;4.07;0.43;;;15.80;99.90;;;;;;4930393;29;20032;-80
2021/07/29 05:38:09;;;;;;;8.55;0.75;;;15.80;99.90;;;;;;4932278;29;20476;-79
2021/07/29 05:40:38;;;;;;;5.50;0.68;;;15.80;99.90;;;;;;4932523;29;20039;-81
2021/07/29 05:43:04;;;;;;;4.90;0.50;;;15.80;99.90;;;;;;4928982;29;20079;-79
2021/07/29 05:45:32;;;;;;;5.60;0.50;;;15.80;99.90;;;;;;4946936;29;20035;-80
2021/07/29 05:47:58;;;;;;;4.18;0.75;;;15.80;99.90;;;;;;4931771;29;20035;-80
2021/07/29 05:50:23;;;;;;;5.35;0.82;;;16.00;99.90;;;;;;4947696;29;20046;-79
2021/07/29 05:52:49;;;;;;;4.45;0.47;;;16.00;99.90;;;;;;4948869;29;20031;-88
2021/07/29 05:55:15;;;;;;;7.55;1.13;;;16.00;99.90;;;;;;4949099;29;20075;-80
2021/07/29 05:57:40;;;;;;;6.43;0.75;;;16.00;99.90;;;;;;4934618;29;20520;-80
2021/07/29 06:00:06;;;;;;;3.83;0.47;;;16.10;99.90;;;;;;4947028;29;20095;-80
2021/07/29 06:02:35;;;;;;;3.65;0.57;;;16.10;99.90;;;;;;4941572;29;20043;-79
2021/07/29 06:05:01;;;;;;;5.22;1.05;;;16.10;99.90;;;;;;4943807;29;20028;-80
2021/07/29 06:07:28;;;;;;;7.95;0.70;;;16.20;99.90;;;;;;4928662;29;20056;-80
2021/07/29 06:09:54;;;;;;;7.03;0.50;;;16.20;99.90;;;;;;4945073;29;20183;-86
2021/07/29 06:12:24;;;;;;;4.97;0.70;;;16.20;99.90;;;;;;4944447;29;20525;-81
2021/07/29 06:14:52;;;;;;;5.32;0.60;;;16.20;99.90;;;;;;4945493;29;20044;-85
2021/07/29 06:17:22;;;;;;;5.55;0.50;;;16.20;99.90;;;;;;4947747;29;20432;-80
2021/07/29 06:19:47;;;;;;;4.50;0.60;;;16.10;99.90;;;;;;4931706;29;20046;-81
2021/07/29 06:22:13;;;;;;;2.42;0.50;;;16.10;99.90;;;;;;4949282;29;20019;-80
2021/07/29 06:24:38;;;;;;;3.90;0.70;;;16.20;99.90;;;;;;4932279;29;20481;-80
2021/07/29 06:27:04;;;;;;;3.72;0.60;;;16.30;99.90;;;;;;4947605;29;20036;-86
2021/07/29 06:29:30;;;;;;;4.28;0.60;;;16.30;99.90;;;;;;4947529;29;20035;-84
2021/07/29 06:31:55;;;;;;;8.18;0.90;;;16.40;99.90;;;;;;4932159;29;20064;-85
2021/07/29 06:34:21;;;;;;;9.07;0.70;;;16.30;99.90;;;;;;4947794;29;20044;-81
2021/07/29 06:36:46;;;;;;;6.38;0.70;;;16.40;99.90;;;;;;4938635;29;20043;-86
2021/07/29 06:39:12;;;;;;;5.63;0.50;;;16.50;99.90;;;;;;4913506;29;20028;-80
2021/07/29 06:41:39;;;;;;;5.30;0.70;;;16.80;99.90;;;;;;4913167;29;20401;-81
2021/07/29 06:44:08;;;;;;;7.32;0.80;;;17.10;99.90;;;;;;4929766;29;20043;-82
2021/07/29 06:46:54;;;;;;;4.05;0.80;;;17.00;99.90;;;;;;4897306;29;20370;-82
2021/07/29 06:49:19;;;;;;;6.53;0.60;;;17.10;99.90;;;;;;4819009;29;20051;-82
2021/07/29 06:51:45;;;;;;;4.55;0.55;;;17.10;99.90;;;;;;4818844;29;20114;-84
2021/07/29 06:54:11;;;;;;;10.75;1.00;;;17.50;99.90;;;;;;4818578;29;20046;-82
2021/07/29 06:56:36;;;;;;;8.77;1.38;;;17.40;99.90;;;;;;4818726;29;20416;-81
2021/07/29 06:59:02;;;;;;;4.57;0.65;;;17.50;99.90;;;;;;4833914;29;20118;-82
2021/07/29 07:01:28;;;;;;;7.45;1.08;;;18.10;99.90;;;;;;4818802;29;20102;-82
2021/07/29 07:03:54;;;;;;;7.72;0.80;;;18.20;99.90;;;;;;4818948;29;20155;-81
2021/07/29 07:06:20;;;;;;;7.05;0.65;;;18.20;99.90;;;;;;4818583;29;20102;-81
2021/07/29 07:08:46;;;;;;;10.88;1.05;;;18.10;99.90;;;;;;4834047;29;20163;-81
2021/07/29 07:11:18;;;;;;;5.35;0.95;;;17.90;99.90;;;;;;4818571;29;20129;-81
2021/07/29 07:13:46;;;;;;;7.90;1.02;;;18.20;99.90;;;;;;4833773;29;20115;-82
2021/07/29 07:16:12;;;;;;;5.30;0.80;;;18.40;99.90;;;;;;4842297;29;20041;-82
2021/07/29 07:18:39;;;;;;;7.13;0.60;;;18.50;99.90;;;;;;4822584;29;20040;-84
2021/07/29 07:21:10;;;;;;;5.60;0.60;;;18.50;99.90;;;;;;4837317;29;20041;-80
2021/07/29 07:23:38;;;;;;;5.97;0.70;;;18.40;99.90;;;;;;4836912;29;20120;-81
2021/07/29 07:26:04;;;;;;;9.45;0.70;;;18.10;99.90;;;;;;4866276;29;20050;-85
2021/07/29 07:28:29;;;;;;;7.93;0.90;;;18.40;99.90;;;;;;4946482;29;20028;-82
2021/07/29 07:30:55;;;;;;;7.28;0.70;;;18.60;99.90;;;;;;4946451;29;20618;-83
2021/07/29 07:33:21;;;;;;;3.78;0.60;;;18.10;99.90;;;;;;4946383;29;20059;-81
2021/07/29 07:35:46;;;;;;;8.32;0.70;;;18.50;99.90;;;;;;4929551;29;20082;-80
2021/07/29 07:38:12;;;;;;;3.25;0.65;;;18.60;99.90;;;;;;4927408;29;20040;-81
2021/07/29 07:40:37;;;;;;;5.45;1.60;;;18.80;99.90;;;;;;4896009;29;20032;-82
2021/07/29 07:43:03;;;;;;;3.53;0.88;;;18.40;99.90;;;;;;4928518;29;20072;-80
2021/07/29 07:45:30;;;;;;;5.38;1.15;;;18.30;99.90;;;;;;4895964;29;20036;-81
2021/07/29 07:47:56;;;;;;;7.22;0.80;;;18.10;99.90;;;;;;4928506;29;20107;-81
2021/07/29 07:50:22;;;;;;;6.97;0.95;;;17.80;99.90;;;;;;4911357;29;20039;-80
2021/07/29 07:52:48;;;;;;;3.45;0.55;;;18.30;99.90;;;;;;4928154;29;20035;-80
2021/07/29 07:55:13;;;;;;;10.38;0.75;;;18.60;99.90;;;;;;4895625;29;20048;-81
2021/07/29 07:57:39;;;;;;;10.88;0.80;;;18.30;99.90;;;;;;4895830;29;20028;-80
2021/07/29 08:00:05;;;;;;;9.80;1.58;;;18.50;99.90;;;;;;4911194;29;20036;-82
2021/07/29 08:02:34;;;;;;;8.37;0.80;;;18.10;99.90;;;;;;4895944;29;20032;-83
2021/07/29 08:04:59;;;;;;;9.63;1.10;;;18.50;99.90;;;;;;4895664;29;20060;-82
2021/07/29 08:07:25;;;;;;;4.30;0.68;;;18.50;99.90;;;;;;4895504;29;20036;-81
2021/07/29 08:09:51;;;;;;;8.27;0.80;;;18.70;99.90;;;;;;4895696;29;20040;-82
2021/07/29 08:12:16;;;;;;;7.25;0.88;;;18.90;99.90;;;;;;4913917;29;20039;-80
2021/07/29 08:14:42;;;;;;;3.80;0.60;;;19.20;99.90;;;;;;4915152;29;20064;-82
2021/07/29 08:17:07;;;;;;;6.05;0.60;;;19.90;99.90;;;;;;4931317;29;20031;-86
2021/07/29 08:19:33;;;;;;;5.63;0.90;;;19.50;99.90;;;;;;4950384;29;20063;-86
2021/07/29 08:21:59;;;;;;;6.90;0.60;;;19.50;99.90;;;;;;4949676;29;20035;-82
2021/07/29 08:24:25;;;;;;;4.85;0.50;;;19.60;99.90;;;;;;4933531;29;20036;-82
2021/07/29 08:26:50;;;;;;;7.60;0.70;;;19.70;99.90;;;;;;4950891;29;20032;-84
2021/07/29 08:29:16;;;;;;;7.97;1.02;;;19.50;99.90;;;;;;4949764;29;20032;-82
2021/07/29 08:31:42;;;;;;;4.88;0.88;;;19.10;99.90;;;;;;4949749;29;20043;-82
2021/07/29 08:34:08;;;;;;;5.63;0.50;;;19.30;99.90;;;;;;4933338;29;20051;-81
2021/07/29 08:36:33;;;;;;;4.68;0.60;;;19.30;99.90;;;;;;4942278;29;20024;-82
2021/07/29 08:38:59;;;;;;;3.45;0.52;;;20.00;99.90;;;;;;4931583;29;20044;-86
2021/07/29 08:41:25;;;;;;;6.38;0.90;;;20.10;99.90;;;;;;4915139;29;20032;-83
2021/07/29 08:43:50;;;;;;;7.85;0.93;;;19.10;99.90;;;;;;4895713;29;20105;-82
2021/07/29 08:46:42;;;;;;;6.60;0.63;;;18.30;99.90;;;;;;4880117;29;20064;-80
2021/07/29 08:49:08;;;;;;;4.35;0.80;;;19.10;99.90;;;;;;4820898;29;20049;-83
2021/07/29 08:51:33;;;;;;;3.40;0.60;;;19.80;99.90;;;;;;4820727;29;20097;-82
2021/07/29 08:54:04;;;;;;;7.32;1.23;;;20.20;99.90;;;;;;4835474;29;20049;-83
2021/07/29 08:56:30;;;;;;;4.57;0.50;;;19.70;99.90;;;;;;4835889;29;20074;-82
2021/07/29 08:58:55;;;;;;;6.55;0.60;;;19.80;99.90;;;;;;4835794;29;20038;-83
2021/07/29 09:01:45;;;;;;;3.10;0.50;;;19.70;99.90;;;;;;4835916;29;20042;-85
2021/07/29 09:04:15;;;;;;;3.15;0.60;;;19.40;99.90;;;;;;4805653;29;20049;-83
2021/07/29 09:07:02;;;;;;;6.15;1.00;;;19.70;99.90;;;;;;4820867;29;20046;-86
2021/07/29 09:09:47;;;;;;;5.45;0.60;;;19.00;99.90;;;;;;4805678;29;20040;-86
2021/07/29 09:12:15;;;;;;;7.00;0.65;;;18.80;99.90;;;;;;4805268;29;20040;-85
2021/07/29 09:14:41;;;;;;;4.43;0.57;;;19.00;99.90;;;;;;4835816;29;20133;-84
2021/07/29 09:17:08;;;;;;;4.00;0.50;;;19.30;99.90;;;;;;4850909;29;20055;-81
2021/07/29 09:19:45;;;;;;;4.85;0.50;;;19.60;99.90;;;;;;4838507;29;20054;-82
2021/07/29 09:22:17;;;;;;;3.17;0.50;;;20.40;99.90;;;;;;4838033;29;20042;-82
2021/07/29 09:25:01;;;;;;;2.35;0.43;;;20.60;99.90;;;;;;4853790;29;20038;-84
2021/07/29 09:27:39;;;;;;;4.38;0.50;;;20.90;99.90;;;;;;4913650;29;20102;-82
2021/07/29 09:30:30;;;;;;;5.63;0.40;;;20.30;99.90;;;;;;4898250;29;20036;-83
2021/07/29 09:33:12;;;;;;;5.25;0.50;;;20.70;99.90;;;;;;4919561;29;20156;-84
2021/07/29 09:35:51;;;;;;;3.80;0.40;;;21.20;99.90;;;;;;4913828;29;20458;-82
2021/07/29 09:38:25;;;;;;;4.00;0.47;;;20.60;99.90;;;;;;4876338;29;20033;-84
2021/07/29 09:40:59;;;;;;;4.85;0.40;;;20.50;99.90;;;;;;4876188;29;20033;-82
2021/07/29 09:43:29;;;;;;;3.80;0.35;;;20.10;99.90;;;;;;4906677;29;20063;-81
2021/07/29 09:45:56;;;;;;;;;;;20.00;99.90;;;;;;4910732;29;20031;-82
2021/07/29 09:48:23;;;;;;;5.63;0.50;;;20.40;99.90;;;;;;4910188;29;19919;-83
2021/07/29 09:50:52;;;;;;;6.00;0.70;;;19.90;99.90;;;;;;4894614;29;20036;-83
2021/07/29 09:53:19;;;;;;;4.75;0.40;;;20.20;99.90;;;;;;4894378;29;20037;-84
2021/07/29 09:55:45;;;;;;;2.58;0.40;;;20.30;99.90;;;;;;4878811;29;20064;-87
2021/07/29 09:58:11;;;;;;;6.78;0.40;;;21.20;99.90;;;;;;4910037;29;20468;-83
2021/07/29 10:00:38;;;;;;;3.53;0.50;;;20.90;99.90;;;;;;4879087;29;20040;-83
2021/07/29 10:03:08;;;;;;;4.97;0.35;;;21.60;99.90;;;;;;4878626;29;20063;-82
2021/07/29 10:06:01;;;;;;;5.90;0.60;;;21.70;99.90;;;;;;4894264;29;20041;-82
2021/07/29 10:08:36;;;;;;;1.77;0.40;;;21.20;99.90;;;;;;4909738;29;20033;-85
2021/07/29 10:11:06;;;;;;;5.25;0.50;;;19.90;99.90;;;;;;4878680;29;20040;-82
2021/07/29 10:13:40;;;;;;;8.30;0.88;;;20.40;99.90;;;;;;4878727;29;20044;-83
2021/07/29 10:16:07;;;;;;;7.55;0.70;;;20.40;99.90;;;;;;4911095;29;20035;-83
2021/07/29 10:18:52;;;;;;;5.65;0.60;;;20.30;99.90;;;;;;4916242;29;20024;-83
2021/07/29 10:21:29;;;;;;;4.70;0.50;;;20.30;99.90;;;;;;4932160;29;20032;-85
2021/07/29 10:23:59;;;;;;;4.20;0.70;;;21.00;99.90;;;;;;4931452;29;20098;-83
2021/07/29 10:26:26;;;;;;;8.05;0.98;;;21.20;99.90;;;;;;4915631;29;20039;-84
2021/07/29 10:28:52;;;;;;;9.40;0.60;;;21.80;99.90;;;;;;4931363;29;20061;-83
2021/07/29 10:31:19;;;;;;;3.97;0.40;;;21.70;99.90;;;;;;4931700;29;20060;-83
2021/07/29 10:33:47;;;;;;;2.90;0.57;;;22.10;99.90;;;;;;4930959;29;20099;-83
2021/07/29 10:36:43;;;;;;;4.22;0.50;;;22.40;99.90;;;;;;4910642;29;20051;-84
2021/07/29 10:39:09;;;;;;;2.58;0.52;;;22.90;99.90;;;;;;4928227;29;20032;-84
2021/07/29 10:41:34;;;;;;;3.38;0.30;;;21.80;99.90;;;;;;4912227;29;20036;-89
2021/07/29 10:44:03;;;;;;;4.28;0.50;;;20.80;99.90;;;;;;4912449;29;20032;-84
2021/07/29 10:46:51;;;;;;;4.60;0.40;;;20.30;99.90;;;;;;4927970;29;20044;-83
2021/07/29 10:49:20;;;;;;;3.88;0.50;;;19.90;99.90;;;;;;4870373;29;20043;-82
2021/07/29 10:52:04;;;;;;;3.50;0.30;;;20.40;99.90;;;;;;4870510;29;20188;-83
2021/07/29 10:54:30;;;;;;;6.47;0.60;;;20.40;99.90;;;;;;4843739;29;20053;-84
2021/07/29 10:56:56;;;;;;;4.28;0.77;;;20.30;99.90;;;;;;4854911;29;20109;-83
2021/07/29 10:59:22;;;;;;;4.63;0.40;;;19.90;99.90;;;;;;4855103;29;20112;-83
2021/07/29 11:01:48;;;;;;;7.13;0.60;;;19.40;99.90;;;;;;4855250;29;20036;-85
2021/07/29 11:04:14;;;;;;;5.00;0.50;;;19.10;99.90;;;;;;4855002;29;20034;-83
2021/07/29 11:06:44;;;;;;;4.20;0.60;;;19.10;99.90;;;;;;4855806;29;20041;-84
2021/07/29 11:09:16;;;;;;;6.03;0.40;;;19.10;99.90;;;;;;4839324;29;20053;-81
2021/07/29 11:11:44;;;;;;;4.85;0.50;;;18.80;99.90;;;;;;4854791;29;20033;-82
2021/07/29 11:14:10;;;;;;;6.43;0.75;;;18.90;99.90;;;;;;4839363;29;20132;-81
2021/07/29 11:16:37;;;;;;;4.03;0.47;;;19.10;99.90;;;;;;4881694;29;20041;-82
2021/07/29 11:19:05;;;;;;;2.53;0.43;;;19.20;99.90;;;;;;4888692;29;20049;-82
2021/07/29 11:21:32;;;;;;;2.25;0.43;;;19.10;99.90;;;;;;4888769;29;20045;-83
2021/07/29 11:23:59;;;;;;;5.63;0.55;;;19.10;99.90;;;;;;4872588;29;20040;-82
2021/07/29 11:26:25;;;;;;;2.17;0.38;;;18.70;99.90;;;;;;4912369;29;20068;-81
2021/07/29 11:29:10;;;;;;;5.10;0.47;;;18.90;99.90;;;;;;4946308;29;20099;-81
2021/07/29 11:31:38;;;;;;;5.15;0.60;;;18.60;99.90;;;;;;4930552;29;20042;-82
2021/07/29 11:34:04;;;;;;;5.45;0.50;;;18.70;99.90;;;;;;4930226;29;20043;-81
2021/07/29 11:36:30;;;;;;;7.57;0.75;;;18.80;99.90;;;;;;4939534;29;20039;-82
2021/07/29 11:39:04;;;;;;;6.10;0.75;;;18.90;99.90;;;;;;4910890;29;20115;-82
2021/07/29 11:41:31;;;;;;;6.65;1.02;;;19.20;99.90;;;;;;4926969;29;20028;-82
2021/07/29 11:44:03;;;;;;;8.23;0.70;;;19.10;99.90;;;;;;4910864;29;20536;-82
2021/07/29 11:46:55;;;;;;;5.30;1.63;;;19.00;99.90;;;;;;4910998;29;20497;-81
2021/07/29 11:49:21;;;;;;;9.80;0.95;;;18.70;99.90;;;;;;4869574;29;20124;-82
2021/07/29 11:52:10;;;;;;;7.32;0.70;;;19.00;99.90;;;;;;4869679;29;20057;-80
2021/07/29 11:54:36;;;;;;;4.00;0.98;;;19.00;99.90;;;;;;4869315;29;20079;-82
2021/07/29 11:57:03;;;;;;;4.18;0.88;;;18.90;99.90;;;;;;4869723;29;20045;-82
2021/07/29 11:59:36;;;;;;;8.88;0.60;;;18.90;99.90;;;;;;4869675;29;20037;-82
2021/07/29 12:02:07;;;;;;;3.50;0.57;;;18.70;99.90;;;;;;4869664;29;20033;-82
2021/07/29 12:04:36;;;;;;;5.65;0.70;;;18.70;99.90;;;;;;4869645;29;20044;-82
2021/07/29 12:07:03;;;;;;;4.38;0.60;;;18.50;99.90;;;;;;4869600;29;20037;-82
2021/07/29 12:09:33;;;;;;;3.88;0.50;;;18.70;99.90;;;;;;4869341;29;20156;-82
2021/07/29 12:11:59;;;;;;;;;;;18.90;99.90;;;;;;4870063;29;20044;-83
2021/07/29 12:14:26;;;;;;;4.45;0.50;;;19.20;99.90;;;;;;4854161;29;19920;-82
2021/07/29 12:16:53;;;;;;;2.13;0.30;;;19.40;99.90;;;;;;4867564;29;20044;-82
2021/07/29 12:19:20;;;;;;;3.00;0.40;;;19.80;99.90;;;;;;4872440;29;20057;-83
2021/07/29 12:21:47;;;;;;;2.05;0.35;;;20.30;99.90;;;;;;4864388;29;20089;-84
2021/07/29 12:24:13;;;;;;;2.13;0.30;;;20.50;99.90;;;;;;4872129;29;20104;-82
2021/07/29 12:26:39;;;;;;;4.00;0.98;;;20.90;99.90;;;;;;4909012;29;20107;-83
2021/07/29 12:29:05;;;;;;;2.67;0.30;;;21.00;99.90;;;;;;4945754;29;20477;-85
2021/07/29 12:31:32;;;;;;;5.05;0.40;;;21.20;99.90;;;;;;4945663;29;20055;-84
2021/07/29 12:34:03;;;;;;;5.43;0.55;;;21.50;99.90;;;;;;4929740;29;20054;-82
2021/07/29 12:36:45;;;;;;;5.88;0.60;;;21.20;99.90;;;;;;4923423;29;20039;-83
2021/07/29 12:39:32;;;;;;;4.18;0.50;;;21.20;99.90;;;;;;4895087;29;20598;-84
2021/07/29 12:41:58;;;;;;;2.83;0.40;;;21.50;99.90;;;;;;4910766;29;20048;-85
2021/07/29 12:44:24;;;;;;;4.05;0.40;;;21.70;99.90;;;;;;4895047;29;20404;-85
2021/07/29 12:46:49;;;;;;;5.15;0.57;;;21.40;99.90;;;;;;4895127;29;20036;-84
2021/07/29 12:49:16;;;;;;;4.95;0.57;;;21.50;99.90;;;;;;4895081;29;20032;-84
2021/07/29 12:51:47;;;;;;;3.33;0.40;;;21.40;99.90;;;;;;4894875;29;20032;-84
2021/07/29 12:54:15;;;;;;;5.07;0.65;;;21.60;99.90;;;;;;4910866;29;20044;-86